Detall de PIREP

Printer-friendly versionPDF version

[2013/06/23 14:57:00]
Flight IATA:CT1004
Pilot Number:026
Company ICAO:CAT
Aircraft Type:DC85/A
PAX:0
Aircraft Registration:CARGO
Departing Airport: LELC
Destination Airport: LFMP
Alternate Airport:LEGE
Online: VATSIM
Route:PALOS/N0310F240 B112 ALT/N0410F300 UN851 MITOS UN608 SOPET UM985 BCN UN870 FEVIK A27 KANIG
Flight Level:F300
No Slew and time accel
No pause
Crash detect
Detect pilot in Cockpit between each 30 and 45 minutes
14:57 Zero fuel Weight: 225755 Lbs, Fuel Weight: 28002 Lbs
14:57 VATSIM:LELC 231400Z 14013KT 100V170 CAVOK 26/17 Q1019 NOSIG
14:57 VATSIM:LFMP 231430Z 32017G30KT 9999 FEW040 BKN071 21/09 Q1021 TEMPO 32025G45KT
14:57 VOICE CATALONIAN / FLAMA DEL CANIGO
15:00 Parking Brakes off
15:09 Take-off
15:09 Take off Weight: 252495 Lbs
15:09 Wind: 137º @ 013 Knots Heading: 222º
15:09 POS N37º 46´ 04´´ W000º 49´ 15´´
15:09 Flaps:2 at 164 Knots
15:09 Gear Up: 172 Knots
15:10 Flaps:1 at 201 Knots
15:11 Flaps:0 at 208 Knots
15:24 Wind:169º@028 Knots Heading: 352º Ground Speed: 486 Knots Altitude 23392 ft
15:26 Flaps:5 at 305 Knots
15:26 Flaps:0 at 304 Knots
15:29 TOC
15:29 Fuel Weight: 20451 Lb
15:39 Wind:092º@042 Knots Heading: 038º Ground Speed: 463 Knots Altitude 30173 ft
15:53 TOD
15:53 Fuel Weight: 13995 Lb
15:54 Wind:139º@024 Knots Heading: 054º Ground Speed: 494 Knots Altitude 29429 ft
16:09 Wind:307º@031 Knots Heading: 344º Ground Speed: 252 Knots Altitude 6043 ft
16:15 Flaps:1 at 241 Knots
16:15 Gear Down: 243 Knots
16:16 Flaps:2 at 164 Knots
16:18 Flaps:3 at 157 Knots
16:18 Flaps:4 at 149 Knots
16:19 Flaps:5 at 140 Knots
16:19 TouchDown:Rate -300 ft/min Speed: 117 Knots
16:20 VATSIM:LFMP 231600Z 31018G35KT 280V350 9999 FEW043 SCT048 BKN090 21/09 Q1021 TEMPO 32025G45KT
16:20 Land
16:20 Wind:308º@033 Knots
16:20 Heading: 328º
16:20 Flight Duration: 01:11
16:20 Landing Weight: 236906 Lbs
16:20 POS N42º 44´ 40´´ E002º 52´ 11´´
16:26 Parking brakes on
16:26 Block to Block Duration: 01:26
16:26 Final Fuel: 10531 Lbls
16:26 Spent Fuel: 17471 Lbls
16:26 Flight Length: 420 NM
16:26 TOD Land Length: 105 NM

Exportar CSV

Powered by Drupal - Modified by Danger4k